Semmes, Alabama
Current Conditions -  °F | °C
As of 1:56 PM on Saturday 25 Oct 2014 (Local Time) from KMOB Reporting Station
Clear Clear  
Wind Chill: 77°   Ceiling: Unl
Heat Index: 78°   Visibility: 10mi
Dew Point: 52°   Wind: 10mph
Humidity: 42%   Direction: 10°N
Pressure: 30.08"   Gusts: NA
Location:  30.78°N, 88.26°W
Report Text: KMOB 251856Z 01009KT 10SM CLR 25/11 A3008 RMK AO2 SLP182 T02500111
Loading
Personal Weather Stations






























Interactive Weather Map
Tropical Storm Tracking
New forecast layout! Learn more

10-Day Weather Forecast

Advertisements
Track Severe Weather on mobile